Time;durP1;ratioP1;P1;durP2;ratioP2;P2;SDS_P1;SDS_P2;PMS_P1;PMS_P2;Temp;Humidity;BMP_temperature;BMP_pressure;BME280_temperature;BME280_humidity;BME280_pressure;Samples;Min_cycle;Max_cycle;Signal;HPM_P1;HPM_P2
2021/06/13 00:00:11;;;;;;;3.20;0.60;;;;;;;;;;4903533;29;20040;-63
2021/06/13 00:02:37;;;;;;;3.25;0.75;;;;;;;;;;4902155;29;20120;-65
2021/06/13 00:05:05;;;;;;;3.35;0.60;;;;;;;;;;4903245;29;20047;-65
2021/06/13 00:07:31;;;;;;;1.92;0.55;;;;;;;;;;4903926;29;20454;-65
2021/06/13 00:09:57;;;;;;;2.15;0.70;;;;;;;;;;4904362;29;20036;-64
2021/06/13 00:12:22;;;;;;;2.45;0.60;;;;;;;;;;4900519;29;20036;-65
2021/06/13 00:14:48;;;;;;;2.08;0.60;;;;;;;;;;4902328;29;20082;-65
2021/06/13 00:17:16;;;;;;;2.10;0.60;;;;;;;;;;4902305;29;20066;-65
2021/06/13 00:19:43;;;;;;;2.05;0.50;;;;;;;;;;4901093;29;20078;-66
2021/06/13 00:22:09;;;;;;;2.10;0.70;;;;;;;;;;4900720;29;20115;-65
2021/06/13 00:24:35;;;;;;;2.95;0.60;;;;;;;;;;4894264;29;20142;-66
2021/06/13 00:27:01;;;;;;;4.00;0.55;;;;;;;;;;4904278;29;21102;-66
2021/06/13 00:29:26;;;;;;;3.50;0.60;;;;;;;;;;4883195;29;20082;-66
2021/06/13 00:31:52;;;;;;;4.55;0.70;;;;;;;;;;4900700;29;20054;-66
2021/06/13 00:34:18;;;;;;;2.70;0.60;;;;;;;;;;4901019;29;20063;-66
2021/06/13 00:36:44;;;;;;;2.70;0.60;;;;;;;;;;4903088;29;20431;-65
2021/06/13 00:39:09;;;;;;;2.75;0.60;;;;;;;;;;4900921;29;20052;-65
2021/06/13 00:41:35;;;;;;;2.45;0.70;;;;;;;;;;4903261;29;20052;-65
2021/06/13 00:44:01;;;;;;;2.70;0.70;;;;;;;;;;4904613;29;20131;-65
2021/06/13 00:46:27;;;;;;;5.00;0.80;;;;;;;;;;4900467;29;20606;-65
2021/06/13 00:48:53;;;;;;;3.00;0.90;;;;;;;;;;4902161;29;20039;-64
2021/06/13 00:51:18;;;;;;;4.80;0.90;;;;;;;;;;4899537;29;20091;-64
2021/06/13 00:53:44;;;;;;;4.35;1.30;;;;;;;;;;4900298;29;20558;-64
2021/06/13 00:56:10;;;;;;;6.97;1.70;;;;;;;;;;4903004;29;20047;-65
2021/06/13 00:58:36;;;;;;;3.08;0.75;;;;;;;;;;4904389;29;20143;-65
2021/06/13 01:01:02;;;;;;;4.13;0.80;;;;;;;;;;4903869;29;20126;-64
2021/06/13 01:03:28;;;;;;;3.63;0.80;;;;;;;;;;4903128;29;20084;-64
2021/06/13 01:05:54;;;;;;;2.88;0.60;;;;;;;;;;4905647;29;20063;-64
2021/06/13 01:08:22;;;;;;;5.28;0.73;;;;;;;;;;4902789;29;20036;-64
2021/06/13 01:11:00;;;;;;;2.30;0.52;;;;;;;;;;4900753;29;20165;-64
2021/06/13 01:13:29;;;;;;;3.17;0.70;;;;;;;;;;4901586;29;20036;-63
2021/06/13 01:16:07;;;;;;;2.30;0.65;;;;;;;;;;4873646;29;20063;-64
2021/06/13 01:18:36;;;;;;;3.45;0.65;;;;;;;;;;4872450;29;20041;-64
2021/06/13 01:21:06;;;;;;;4.05;0.60;;;;;;;;;;4871831;29;20593;-64
2021/06/13 01:23:39;;;;;;;4.72;0.70;;;;;;;;;;4871691;29;20043;-65
2021/06/13 01:26:08;;;;;;;4.30;0.68;;;;;;;;;;4875871;29;20049;-64
2021/06/13 01:28:37;;;;;;;2.40;0.65;;;;;;;;;;4882504;29;20036;-62
2021/06/13 01:31:03;;;;;;;2.47;0.65;;;;;;;;;;4881812;29;20638;-64
2021/06/13 01:33:29;;;;;;;5.43;0.60;;;;;;;;;;4864504;29;20041;-64
2021/06/13 01:35:56;;;;;;;2.50;0.55;;;;;;;;;;4863193;29;20048;-64
2021/06/13 01:38:21;;;;;;;1.92;0.60;;;;;;;;;;4869563;29;20053;-64
2021/06/13 01:40:47;;;;;;;2.95;0.80;;;;;;;;;;4860606;29;20170;-64
2021/06/13 01:43:15;;;;;;;4.88;0.63;;;;;;;;;;4862106;29;20041;-63
2021/06/13 01:45:42;;;;;;;4.00;0.60;;;;;;;;;;4868072;29;20045;-63
2021/06/13 01:48:09;;;;;;;3.83;0.73;;;;;;;;;;4863818;29;20048;-65
2021/06/13 01:50:35;;;;;;;3.78;0.70;;;;;;;;;;4861486;29;20044;-63
2021/06/13 01:53:05;;;;;;;7.10;1.88;;;;;;;;;;4862556;29;20044;-64
2021/06/13 01:55:32;;;;;;;1.65;0.50;;;;;;;;;;4861417;29;20081;-64
2021/06/13 01:57:59;;;;;;;3.70;1.70;;;;;;;;;;4861839;29;20307;-63
2021/06/13 02:00:25;;;;;;;3.25;0.90;;;;;;;;;;4861445;29;20584;-64
2021/06/13 02:02:52;;;;;;;2.60;0.60;;;;;;;;;;4861903;29;20044;-64
2021/06/13 02:05:19;;;;;;;2.80;0.70;;;;;;;;;;4858906;29;20044;-65
2021/06/13 02:07:46;;;;;;;3.33;0.70;;;;;;;;;;4863275;29;20383;-65
2021/06/13 02:10:14;;;;;;;2.67;0.60;;;;;;;;;;4862653;29;20072;-65
2021/06/13 02:12:44;;;;;;;4.15;1.00;;;;;;;;;;4859349;29;20851;-64
2021/06/13 02:15:11;;;;;;;3.42;1.00;;;;;;;;;;4886098;29;20056;-65
2021/06/13 02:17:37;;;;;;;3.40;0.95;;;;;;;;;;4908381;29;20051;-64
2021/06/13 02:20:07;;;;;;;3.85;0.60;;;;;;;;;;4895921;29;20110;-63
2021/06/13 02:22:34;;;;;;;4.05;0.80;;;;;;;;;;4910913;29;20468;-62
2021/06/13 02:25:00;;;;;;;3.13;0.50;;;;;;;;;;4912749;29;20135;-63
2021/06/13 02:27:27;;;;;;;4.47;1.63;;;;;;;;;;4912555;29;20050;-64
2021/06/13 02:29:53;;;;;;;4.22;1.30;;;;;;;;;;4911428;29;20047;-60
2021/06/13 02:32:19;;;;;;;3.13;1.05;;;;;;;;;;4894026;29;20048;-63
2021/06/13 02:34:47;;;;;;;2.92;0.73;;;;;;;;;;4896443;29;20662;-64
2021/06/13 02:37:13;;;;;;;4.18;0.60;;;;;;;;;;4909736;29;20130;-64
2021/06/13 02:39:43;;;;;;;4.43;0.90;;;;;;;;;;4911069;29;20048;-64
2021/06/13 02:42:09;;;;;;;4.63;0.77;;;;;;;;;;4909514;29;20040;-64
2021/06/13 02:44:35;;;;;;;3.13;0.80;;;;;;;;;;4909966;29;20333;-65
2021/06/13 02:47:00;;;;;;;2.50;0.70;;;;;;;;;;4914378;29;20059;-62
2021/06/13 02:49:26;;;;;;;5.63;0.75;;;;;;;;;;4913320;29;20410;-63
2021/06/13 02:52:01;;;;;;;4.63;1.08;;;;;;;;;;4916985;29;20042;-63
2021/06/13 02:54:27;;;;;;;3.30;1.00;;;;;;;;;;4915800;29;20048;-64
2021/06/13 02:56:57;;;;;;;2.88;0.85;;;;;;;;;;4921623;29;20052;-63
2021/06/13 02:59:29;;;;;;;3.13;1.02;;;;;;;;;;4910857;29;20039;-62
2021/06/13 03:01:56;;;;;;;2.92;1.10;;;;;;;;;;4908975;29;20051;-63
2021/06/13 03:04:24;;;;;;;3.90;1.13;;;;;;;;;;4914198;29;20087;-62
2021/06/13 03:06:54;;;;;;;2.90;1.27;;;;;;;;;;4910215;29;20774;-61
2021/06/13 03:09:21;;;;;;;4.28;1.83;;;;;;;;;;4910789;29;20163;-62
2021/06/13 03:11:48;;;;;;;4.90;1.30;;;;;;;;;;4910928;29;20056;-64
2021/06/13 03:14:15;;;;;;;3.00;0.93;;;;;;;;;;4911253;29;20059;-62
2021/06/13 03:16:41;;;;;;;3.22;1.30;;;;;;;;;;4908748;29;20040;-62
2021/06/13 03:19:08;;;;;;;4.78;1.17;;;;;;;;;;4912499;29;20043;-63
2021/06/13 03:21:34;;;;;;;7.85;2.17;;;;;;;;;;4911635;29;20055;-62
2021/06/13 03:24:00;;;;;;;9.57;2.80;;;;;;;;;;4910509;29;20066;-63
2021/06/13 03:26:27;;;;;;;9.00;3.83;;;;;;;;;;4909608;29;20418;-62
2021/06/13 03:28:56;;;;;;;4.05;1.63;;;;;;;;;;4912305;29;20055;-64
2021/06/13 03:31:22;;;;;;;4.50;1.23;;;;;;;;;;4911790;29;20053;-65
2021/06/13 03:33:49;;;;;;;3.78;1.15;;;;;;;;;;4912455;29;20046;-62
2021/06/13 03:36:16;;;;;;;4.45;1.10;;;;;;;;;;4911652;29;20130;-64
2021/06/13 03:38:43;;;;;;;6.15;1.27;;;;;;;;;;4912287;29;20035;-65
2021/06/13 03:41:09;;;;;;;6.85;1.20;;;;;;;;;;4916727;29;20052;-66
2021/06/13 03:43:35;;;;;;;3.35;0.98;;;;;;;;;;4910240;29;21078;-65
2021/06/13 03:46:01;;;;;;;7.53;1.30;;;;;;;;;;4915375;29;20055;-65
2021/06/13 03:48:27;;;;;;;3.13;1.10;;;;;;;;;;4915083;29;20068;-65
2021/06/13 03:50:54;;;;;;;7.63;1.08;;;;;;;;;;4913510;29;20504;-64
2021/06/13 03:53:21;;;;;;;3.58;1.35;;;;;;;;;;4915206;29;20047;-63
2021/06/13 03:55:47;;;;;;;5.35;1.60;;;;;;;;;;4912860;29;20332;-64
2021/06/13 03:58:14;;;;;;;4.10;1.42;;;;;;;;;;4912454;29;20221;-65
2021/06/13 04:00:42;;;;;;;5.18;1.45;;;;;;;;;;4914976;29;20039;-64
2021/06/13 04:03:08;;;;;;;4.45;1.60;;;;;;;;;;4906398;29;20543;-62
2021/06/13 04:05:34;;;;;;;6.97;1.65;;;;;;;;;;4891903;29;20040;-63
2021/06/13 04:08:00;;;;;;;12.45;2.42;;;;;;;;;;4908930;29;20142;-64
2021/06/13 04:10:26;;;;;;;18.70;5.13;;;;;;;;;;4909402;29;20750;-62
2021/06/13 04:12:53;;;;;;;9.35;3.03;;;;;;;;;;4910611;29;20051;-63
2021/06/13 04:15:20;;;;;;;8.50;2.10;;;;;;;;;;4913751;29;20048;-63
2021/06/13 04:17:46;;;;;;;8.63;1.70;;;;;;;;;;4895118;29;20044;-63
2021/06/13 04:20:13;;;;;;;9.55;2.00;;;;;;;;;;4912094;29;20051;-63
2021/06/13 04:22:39;;;;;;;6.65;2.20;;;;;;;;;;4904509;29;20044;-63
2021/06/13 04:25:07;;;;;;;10.88;3.33;;;;;;;;;;4912299;29;20036;-63
2021/06/13 04:27:34;;;;;;;14.35;3.83;;;;;;;;;;4910009;29;20079;-59
2021/06/13 04:30:00;;;;;;;23.05;4.40;;;;;;;;;;4910989;29;20238;-58
2021/06/13 04:32:27;;;;;;;14.45;3.95;;;;;;;;;;4910476;29;20481;-58
2021/06/13 04:35:07;;;;;;;11.38;3.92;;;;;;;;;;4914292;29;20047;-62
2021/06/13 04:37:33;;;;;;;9.18;3.60;;;;;;;;;;4901017;29;20131;-59
2021/06/13 04:39:59;;;;;;;6.35;3.33;;;;;;;;;;4914127;29;20044;-58
2021/06/13 04:42:25;;;;;;;9.48;3.70;;;;;;;;;;4896498;29;20525;-58
2021/06/13 04:47:38;;;;;;;6.80;3.80;;;;;;;;;;4886674;29;20063;-59
2021/06/13 04:50:13;;;;;;;10.85;4.30;;;;;;;;;;4887844;29;20041;-60
2021/06/13 04:52:42;;;;;;;11.48;5.13;;;;;;;;;;4884628;29;20055;-60
2021/06/13 04:55:16;;;;;;;10.93;3.80;;;;;;;;;;4887696;29;20623;-58
2021/06/13 04:57:42;;;;;;;7.80;3.45;;;;;;;;;;4868083;29;20048;-59
2021/06/13 05:00:08;;;;;;;25.10;4.32;;;;;;;;;;4883792;29;20813;-59
2021/06/13 05:02:34;;;;;;;10.50;4.03;;;;;;;;;;4881525;29;20556;-60
2021/06/13 05:05:00;;;;;;;11.30;3.72;;;;;;;;;;4883816;29;20846;-58
2021/06/13 05:07:26;;;;;;;10.00;4.28;;;;;;;;;;4882125;29;20148;-59
2021/06/13 05:09:52;;;;;;;15.40;4.35;;;;;;;;;;4882446;29;20526;-59
2021/06/13 05:12:18;;;;;;;16.60;6.85;;;;;;;;;;4881734;29;20079;-58
2021/06/13 05:14:44;;;;;;;11.55;5.10;;;;;;;;;;4884977;29;20132;-59
2021/06/13 05:17:10;;;;;;;11.02;5.68;;;;;;;;;;4886322;29;20091;-60
2021/06/13 05:19:36;;;;;;;12.35;5.18;;;;;;;;;;4891187;29;20417;-59
2021/06/13 05:22:08;;;;;;;12.50;5.75;;;;;;;;;;4904500;29;20036;-59
2021/06/13 05:24:35;;;;;;;13.75;6.53;;;;;;;;;;4884383;29;20083;-57
2021/06/13 05:27:00;;;;;;;14.00;6.78;;;;;;;;;;4904524;29;20696;-58
2021/06/13 05:29:26;;;;;;;12.85;5.70;;;;;;;;;;4902627;29;20043;-59
2021/06/13 05:31:52;;;;;;;12.38;5.60;;;;;;;;;;4902286;29;20048;-58
2021/06/13 05:34:18;;;;;;;9.88;3.67;;;;;;;;;;4900986;29;20143;-58
2021/06/13 05:36:44;;;;;;;8.32;3.15;;;;;;;;;;4901626;29;20036;-59
2021/06/13 05:39:10;;;;;;;5.75;2.70;;;;;;;;;;4902791;29;20055;-58
2021/06/13 05:41:35;;;;;;;7.72;2.75;;;;;;;;;;4903394;29;20119;-59
2021/06/13 05:44:02;;;;;;;9.38;2.35;;;;;;;;;;4903632;29;20052;-57
2021/06/13 05:46:28;;;;;;;5.95;2.13;;;;;;;;;;4902371;29;20104;-58
2021/06/13 05:48:54;;;;;;;6.20;1.98;;;;;;;;;;4903753;29;20040;-58
2021/06/13 05:51:20;;;;;;;9.57;2.30;;;;;;;;;;4902876;29;20343;-59
2021/06/13 05:53:46;;;;;;;8.07;1.70;;;;;;;;;;4905129;29;20091;-60
2021/06/13 05:56:12;;;;;;;7.38;1.80;;;;;;;;;;4902791;29;20050;-59
2021/06/13 05:58:38;;;;;;;5.70;1.60;;;;;;;;;;4901906;29;20048;-59
2021/06/13 06:01:03;;;;;;;10.10;2.42;;;;;;;;;;4899461;29;20143;-59
2021/06/13 06:03:29;;;;;;;12.50;1.92;;;;;;;;;;4892760;29;20054;-58
2021/06/13 06:05:55;;;;;;;6.80;1.70;;;;;;;;;;4894968;29;20046;-59
2021/06/13 06:08:21;;;;;;;9.38;1.70;;;;;;;;;;4876279;29;20078;-59
2021/06/13 06:10:49;;;;;;;7.10;1.60;;;;;;;;;;4894912;29;20502;-59
2021/06/13 06:13:15;;;;;;;5.82;2.00;;;;;;;;;;4882331;29;20059;-59
2021/06/13 06:15:42;;;;;;;8.55;1.80;;;;;;;;;;4891796;29;20056;-59
2021/06/13 06:18:07;;;;;;;6.63;1.65;;;;;;;;;;4896378;29;20059;-60
2021/06/13 06:20:34;;;;;;;4.95;1.63;;;;;;;;;;4896644;29;20838;-58
2021/06/13 06:23:00;;;;;;;7.72;1.60;;;;;;;;;;4897548;29;20144;-58
2021/06/13 06:25:26;;;;;;;8.52;1.90;;;;;;;;;;4897884;29;20659;-59
2021/06/13 06:27:52;;;;;;;6.55;1.58;;;;;;;;;;4871950;29;20609;-59
2021/06/13 06:30:19;;;;;;;9.05;1.80;;;;;;;;;;4894647;29;20136;-57
2021/06/13 06:32:45;;;;;;;7.15;2.08;;;;;;;;;;4899073;29;20067;-60
2021/06/13 06:35:12;;;;;;;7.70;2.40;;;;;;;;;;4898560;29;20048;-58
2021/06/13 06:37:39;;;;;;;6.90;3.15;;;;;;;;;;4897690;29;20044;-58
2021/06/13 06:40:06;;;;;;;8.40;3.45;;;;;;;;;;4897076;29;20119;-60
2021/06/13 06:42:33;;;;;;;6.65;2.20;;;;;;;;;;4896402;29;21057;-58
2021/06/13 06:44:59;;;;;;;11.35;1.90;;;;;;;;;;4881416;29;20040;-58
2021/06/13 06:47:25;;;;;;;4.47;1.50;;;;;;;;;;4897291;29;20048;-59
2021/06/13 06:49:52;;;;;;;4.38;1.30;;;;;;;;;;4896715;29;20044;-59
2021/06/13 06:52:17;;;;;;;5.65;1.50;;;;;;;;;;4897696;29;20188;-60
2021/06/13 06:54:44;;;;;;;7.03;1.50;;;;;;;;;;4898314;29;20541;-56
2021/06/13 06:57:13;;;;;;;5.60;1.60;;;;;;;;;;4897797;29;20039;-59
2021/06/13 06:59:38;;;;;;;5.15;1.48;;;;;;;;;;4896319;29;20236;-60
2021/06/13 07:02:05;;;;;;;4.65;1.20;;;;;;;;;;4895327;29;20321;-60
2021/06/13 07:04:30;;;;;;;5.25;1.65;;;;;;;;;;4896270;29;20048;-60
2021/06/13 07:06:56;;;;;;;3.95;1.67;;;;;;;;;;4896141;29;20160;-59
2021/06/13 07:09:23;;;;;;;7.20;2.65;;;;;;;;;;4896403;29;20062;-58
2021/06/13 07:11:49;;;;;;;5.85;1.98;;;;;;;;;;4895617;29;20406;-59
2021/06/13 07:14:15;;;;;;;8.02;3.95;;;;;;;;;;4896438;29;20785;-59
2021/06/13 07:16:41;;;;;;;9.75;3.33;;;;;;;;;;4896259;29;20040;-58
2021/06/13 07:19:07;;;;;;;6.05;2.70;;;;;;;;;;4897104;29;20650;-59
2021/06/13 07:21:33;;;;;;;7.60;2.85;;;;;;;;;;4878393;29;20040;-59
2021/06/13 07:23:59;;;;;;;5.40;2.55;;;;;;;;;;4897975;29;20123;-58
2021/06/13 07:26:25;;;;;;;8.18;2.13;;;;;;;;;;4895378;29;20774;-59
2021/06/13 07:28:51;;;;;;;5.60;2.00;;;;;;;;;;4897851;29;20039;-59
2021/06/13 07:31:16;;;;;;;4.88;1.67;;;;;;;;;;4896236;29;20044;-59
2021/06/13 07:33:42;;;;;;;4.90;1.60;;;;;;;;;;4896829;29;20493;-59
2021/06/13 07:36:08;;;;;;;4.65;1.70;;;;;;;;;;4898707;29;20050;-60
2021/06/13 07:38:34;;;;;;;5.40;1.50;;;;;;;;;;4897242;29;20044;-59
2021/06/13 07:41:00;;;;;;;7.65;2.50;;;;;;;;;;4895510;29;20552;-59
2021/06/13 07:43:26;;;;;;;7.40;2.40;;;;;;;;;;4897163;29;20659;-59
2021/06/13 07:45:52;;;;;;;6.10;1.98;;;;;;;;;;4895980;29;20039;-59
2021/06/13 07:48:18;;;;;;;6.60;1.80;;;;;;;;;;4896206;29;20131;-59
2021/06/13 07:50:44;;;;;;;4.13;1.67;;;;;;;;;;4894824;29;20074;-59
2021/06/13 07:53:10;;;;;;;6.22;1.85;;;;;;;;;;4897310;29;20043;-59
2021/06/13 07:55:36;;;;;;;5.40;1.70;;;;;;;;;;4877777;29;20685;-60
2021/06/13 07:58:03;;;;;;;8.60;1.83;;;;;;;;;;4894642;29;20051;-59
2021/06/13 08:00:29;;;;;;;7.45;1.60;;;;;;;;;;4895974;29;20136;-59
2021/06/13 08:02:54;;;;;;;5.10;1.90;;;;;;;;;;4896189;29;20070;-59
2021/06/13 08:05:29;;;;;;;6.25;1.50;;;;;;;;;;4893069;29;20044;-59
2021/06/13 08:07:57;;;;;;;6.88;2.13;;;;;;;;;;4894804;29;20076;-59
2021/06/13 08:10:23;;;;;;;9.13;2.53;;;;;;;;;;4895890;29;20124;-59
2021/06/13 08:12:49;;;;;;;8.40;2.65;;;;;;;;;;4894914;29;21078;-59
2021/06/13 08:15:15;;;;;;;9.35;3.15;;;;;;;;;;4897497;29;20326;-60
2021/06/13 08:17:42;;;;;;;9.70;2.85;;;;;;;;;;4895846;29;20043;-59
2021/06/13 08:20:08;;;;;;;7.57;3.10;;;;;;;;;;4896704;29;20851;-59
2021/06/13 08:22:33;;;;;;;11.95;2.95;;;;;;;;;;4894881;29;20095;-59
2021/06/13 08:24:59;;;;;;;6.15;3.10;;;;;;;;;;4897116;29;20075;-59
2021/06/13 08:27:26;;;;;;;9.63;2.70;;;;;;;;;;4894687;29;20056;-58
2021/06/13 08:29:52;;;;;;;12.02;3.33;;;;;;;;;;4896895;29;20506;-60
2021/06/13 08:32:18;;;;;;;7.35;2.90;;;;;;;;;;4896099;29;20055;-60
2021/06/13 08:34:44;;;;;;;9.20;2.50;;;;;;;;;;4897072;29;20048;-58
2021/06/13 08:37:09;;;;;;;8.25;2.75;;;;;;;;;;4897485;29;20048;-59
2021/06/13 08:39:36;;;;;;;7.78;2.70;;;;;;;;;;4895418;29;20052;-58
2021/06/13 08:42:02;;;;;;;9.90;2.88;;;;;;;;;;4896017;29;20044;-58
2021/06/13 08:44:28;;;;;;;8.82;2.83;;;;;;;;;;4894942;29;20106;-58
2021/06/13 08:46:56;;;;;;;4.28;2.10;;;;;;;;;;4895294;29;20060;-58
2021/06/13 08:49:23;;;;;;;7.07;2.92;;;;;;;;;;4896223;29;20048;-59
2021/06/13 08:51:49;;;;;;;7.75;2.88;;;;;;;;;;4896753;29;20564;-59
2021/06/13 08:54:15;;;;;;;5.80;2.53;;;;;;;;;;4896183;29;20160;-59
2021/06/13 08:56:42;;;;;;;8.00;2.45;;;;;;;;;;4895652;29;20214;-58
2021/06/13 08:59:08;;;;;;;8.38;3.00;;;;;;;;;;4877322;29;20044;-58
2021/06/13 09:01:34;;;;;;;10.15;3.53;;;;;;;;;;4893451;29;20051;-59
2021/06/13 09:04:02;;;;;;;9.80;3.50;;;;;;;;;;4895798;29;20724;-59
2021/06/13 09:06:28;;;;;;;9.82;3.80;;;;;;;;;;4894494;29;20058;-58
2021/06/13 09:08:54;;;;;;;9.43;3.70;;;;;;;;;;4897153;29;20028;-59
2021/06/13 09:11:26;;;;;;;10.50;3.40;;;;;;;;;;4893707;29;20078;-59
2021/06/13 09:13:52;;;;;;;8.35;3.33;;;;;;;;;;4894309;29;20067;-59
2021/06/13 09:16:25;;;;;;;9.32;3.28;;;;;;;;;;4895007;29;20035;-58
2021/06/13 09:18:51;;;;;;;7.97;3.42;;;;;;;;;;4895634;29;20052;-58
2021/06/13 09:21:20;;;;;;;8.35;3.28;;;;;;;;;;4893989;29;20051;-59
2021/06/13 09:23:46;;;;;;;9.60;3.35;;;;;;;;;;4895508;29;20092;-60
2021/06/13 09:26:20;;;;;;;13.05;3.53;;;;;;;;;;4893366;29;20055;-59
2021/06/13 09:28:47;;;;;;;11.38;2.60;;;;;;;;;;4895584;29;20490;-58
2021/06/13 09:31:16;;;;;;;11.05;2.95;;;;;;;;;;4894057;29;20106;-59
2021/06/13 09:33:43;;;;;;;9.18;3.38;;;;;;;;;;4894431;29;20039;-59
2021/06/13 09:36:09;;;;;;;8.18;2.88;;;;;;;;;;4896331;29;20114;-58
2021/06/13 09:38:37;;;;;;;7.30;2.72;;;;;;;;;;4893718;29;20142;-59
2021/06/13 09:41:06;;;;;;;7.13;2.47;;;;;;;;;;4877395;29;20040;-60
2021/06/13 09:43:33;;;;;;;9.02;2.88;;;;;;;;;;4893456;29;20067;-59
2021/06/13 09:46:04;;;;;;;8.73;2.53;;;;;;;;;;4896530;29;20140;-58
2021/06/13 09:48:30;;;;;;;8.70;2.63;;;;;;;;;;4893792;29;20072;-57
2021/06/13 09:50:57;;;;;;;8.18;2.63;;;;;;;;;;4895052;29;20581;-58
2021/06/13 09:53:25;;;;;;;7.18;2.60;;;;;;;;;;4894212;29;20055;-57
2021/06/13 09:56:19;;;;;;;8.80;2.55;;;;;;;;;;4899935;29;20488;-58
2021/06/13 09:58:47;;;;;;;7.07;2.60;;;;;;;;;;4885375;29;20044;-58
2021/06/13 10:01:13;;;;;;;6.22;2.35;;;;;;;;;;4899458;29;20048;-57
2021/06/13 10:03:39;;;;;;;5.63;2.65;;;;;;;;;;4898757;29;20047;-58
2021/06/13 10:06:06;;;;;;;6.28;2.22;;;;;;;;;;4899079;29;20631;-58
2021/06/13 10:08:32;;;;;;;9.32;2.65;;;;;;;;;;4900267;29;20611;-58
2021/06/13 10:10:58;;;;;;;10.75;2.70;;;;;;;;;;4899134;29;20139;-58
2021/06/13 10:13:44;;;;;;;5.47;2.42;;;;;;;;;;4897021;29;20055;-58
2021/06/13 10:16:20;;;;;;;6.47;2.20;;;;;;;;;;4899214;29;20060;-58
2021/06/13 10:18:53;;;;;;;8.18;2.42;;;;;;;;;;4897410;29;20528;-58
2021/06/13 10:21:19;;;;;;;10.30;2.50;;;;;;;;;;4897522;29;21129;-56
2021/06/13 10:23:45;;;;;;;8.15;2.67;;;;;;;;;;4896689;29;20126;-58
2021/06/13 10:26:11;;;;;;;5.50;1.90;;;;;;;;;;4899565;29;20059;-58
2021/06/13 10:28:37;;;;;;;6.25;2.17;;;;;;;;;;4897439;29;20048;-59
2021/06/13 10:31:04;;;;;;;7.15;2.28;;;;;;;;;;4898695;29;20104;-59
2021/06/13 10:33:30;;;;;;;5.55;2.10;;;;;;;;;;4896381;29;20035;-58
2021/06/13 10:36:01;;;;;;;7.45;2.50;;;;;;;;;;4898298;29;20058;-58
2021/06/13 10:38:31;;;;;;;6.88;2.60;;;;;;;;;;4896662;29;20040;-57
2021/06/13 10:40:57;;;;;;;8.68;2.38;;;;;;;;;;4897485;29;20887;-58
2021/06/13 10:43:25;;;;;;;6.45;2.30;;;;;;;;;;4895892;29;20171;-59
2021/06/13 10:45:51;;;;;;;6.53;2.20;;;;;;;;;;4898276;29;20140;-58
2021/06/13 10:48:18;;;;;;;9.52;2.10;;;;;;;;;;4897382;29;20063;-58
2021/06/13 10:50:44;;;;;;;7.15;2.47;;;;;;;;;;4896981;29;20043;-59
2021/06/13 10:53:11;;;;;;;10.70;2.70;;;;;;;;;;4897605;29;20071;-59
2021/06/13 10:55:46;;;;;;;10.13;2.58;;;;;;;;;;4893902;29;20190;-59
2021/06/13 10:58:12;;;;;;;8.60;2.33;;;;;;;;;;4899509;29;20047;-58
2021/06/13 11:00:37;;;;;;;7.47;2.35;;;;;;;;;;4897632;29;20050;-59
2021/06/13 11:03:03;;;;;;;6.88;2.33;;;;;;;;;;4896723;29;20143;-59
2021/06/13 11:05:46;;;;;;;5.90;2.20;;;;;;;;;;4895309;29;20143;-59
2021/06/13 11:08:12;;;;;;;5.87;1.97;;;;;;;;;;4896840;29;21002;-59
2021/06/13 11:10:39;;;;;;;9.65;2.30;;;;;;;;;;4895203;29;21241;-59
2021/06/13 11:13:13;;;;;;;11.18;2.55;;;;;;;;;;4895566;29;20079;-59
2021/06/13 11:15:45;;;;;;;10.63;2.60;;;;;;;;;;4895352;29;20091;-58
2021/06/13 11:18:14;;;;;;;10.43;2.20;;;;;;;;;;4896839;29;20048;-58
2021/06/13 11:20:47;;;;;;;8.38;2.45;;;;;;;;;;4896173;29;20389;-56
2021/06/13 11:23:12;;;;;;;;;;;;;;;;;;4896119;29;20036;-59
2021/06/13 11:25:39;;;;;;;7.10;1.90;;;;;;;;;;4895328;29;20380;-58
2021/06/13 11:28:08;;;;;;;6.32;2.00;;;;;;;;;;4896849;29;20052;-59
2021/06/13 11:30:33;;;;;;;8.35;2.45;;;;;;;;;;4896331;29;20055;-59
2021/06/13 11:32:59;;;;;;;6.90;1.63;;;;;;;;;;4896193;29;20047;-59
2021/06/13 11:35:26;;;;;;;3.92;1.73;;;;;;;;;;4895098;29;20521;-56
2021/06/13 11:38:12;;;;;;;5.97;1.98;;;;;;;;;;4897292;29;20091;-58
2021/06/13 11:40:45;;;;;;;5.55;1.85;;;;;;;;;;4895874;29;20036;-59
2021/06/13 11:43:12;;;;;;;7.50;2.03;;;;;;;;;;4895775;29;20044;-59
2021/06/13 11:45:38;;;;;;;5.65;1.88;;;;;;;;;;4896191;29;20051;-59
2021/06/13 11:48:30;;;;;;;5.72;2.10;;;;;;;;;;4897089;29;20044;-59
2021/06/13 11:51:13;;;;;;;5.78;2.30;;;;;;;;;;4891931;29;20071;-59
2021/06/13 11:53:59;;;;;;;9.27;2.53;;;;;;;;;;4896246;29;20080;-59
2021/06/13 11:56:34;;;;;;;12.90;2.78;;;;;;;;;;4896589;29;21163;-59
2021/06/13 11:59:20;;;;;;;8.95;3.35;;;;;;;;;;4896405;29;20093;-59
2021/06/13 12:01:52;;;;;;;8.57;2.60;;;;;;;;;;4897198;29;20044;-60
2021/06/13 12:04:19;;;;;;;7.77;2.37;;;;;;;;;;4896860;29;20050;-59
2021/06/13 12:06:45;;;;;;;11.57;2.50;;;;;;;;;;4895973;29;20178;-60
2021/06/13 12:09:12;;;;;;;6.65;2.78;;;;;;;;;;4897300;29;20052;-60
2021/06/13 12:11:51;;;;;;;4.43;2.30;;;;;;;;;;4894774;29;20079;-59
2021/06/13 12:14:17;;;;;;;13.38;2.63;;;;;;;;;;4898937;29;20114;-60
2021/06/13 12:16:43;;;;;;;7.55;2.63;;;;;;;;;;4896322;29;20723;-60
2021/06/13 12:19:09;;;;;;;10.45;2.83;;;;;;;;;;4895868;29;20544;-58
2021/06/13 12:21:35;;;;;;;9.60;2.70;;;;;;;;;;4894572;29;20063;-59
2021/06/13 12:27:23;;;;;;;9.25;2.90;;;;;;;;;;4865078;29;20804;-59
2021/06/13 12:29:49;;;;;;;12.03;2.77;;;;;;;;;;4895793;29;20926;-59
2021/06/13 12:32:16;;;;;;;6.55;2.50;;;;;;;;;;4896183;29;20047;-59
2021/06/13 12:34:42;;;;;;;7.97;2.30;;;;;;;;;;4897993;29;20909;-60
2021/06/13 12:37:14;;;;;;;6.60;2.10;;;;;;;;;;4897071;29;20044;-60
2021/06/13 12:39:40;;;;;;;5.57;2.20;;;;;;;;;;4895312;29;20051;-59
2021/06/13 12:42:08;;;;;;;6.38;2.28;;;;;;;;;;4896560;29;20291;-58
2021/06/13 12:44:35;;;;;;;8.10;2.60;;;;;;;;;;4895248;29;20044;-59
2021/06/13 12:47:02;;;;;;;4.28;1.90;;;;;;;;;;4897048;29;20490;-59
2021/06/13 12:49:37;;;;;;;5.65;2.00;;;;;;;;;;4894367;29;20784;-57
2021/06/13 12:52:10;;;;;;;6.18;2.10;;;;;;;;;;4880718;29;20123;-58
2021/06/13 12:54:36;;;;;;;7.18;1.92;;;;;;;;;;4896456;29;22358;-59
2021/06/13 12:57:02;;;;;;;7.45;1.95;;;;;;;;;;4894896;29;20040;-61
2021/06/13 12:59:28;;;;;;;8.18;1.92;;;;;;;;;;4895290;29;20044;-63
2021/06/13 13:01:54;;;;;;;8.10;2.03;;;;;;;;;;4895479;29;20044;-63
2021/06/13 13:04:38;;;;;;;6.13;2.08;;;;;;;;;;4894558;29;20131;-64
2021/06/13 13:07:04;;;;;;;6.65;2.30;;;;;;;;;;4896513;29;20084;-63
2021/06/13 13:09:29;;;;;;;8.02;2.13;;;;;;;;;;4893614;29;20856;-63
2021/06/13 13:11:55;;;;;;;5.50;2.03;;;;;;;;;;4894567;29;20059;-63
2021/06/13 13:14:21;;;;;;;7.70;2.40;;;;;;;;;;4894950;29;20940;-64
2021/06/13 13:16:47;;;;;;;8.43;2.50;;;;;;;;;;4896304;29;20043;-63
2021/06/13 13:19:27;;;;;;;10.80;2.17;;;;;;;;;;4878124;29;21208;-60
2021/06/13 13:21:56;;;;;;;6.00;2.10;;;;;;;;;;4893597;29;20048;-61
2021/06/13 13:24:35;;;;;;;12.00;2.60;;;;;;;;;;4896053;29;20075;-62
2021/06/13 13:27:04;;;;;;;6.28;2.80;;;;;;;;;;4895451;29;20774;-61
2021/06/13 13:29:43;;;;;;;9.02;2.50;;;;;;;;;;4893580;29;20056;-62
2021/06/13 13:32:09;;;;;;;12.30;2.50;;;;;;;;;;4895590;29;20126;-61
2021/06/13 13:34:35;;;;;;;8.23;2.15;;;;;;;;;;4896047;29;20066;-60
2021/06/13 13:37:13;;;;;;;6.22;2.28;;;;;;;;;;4895442;29;20063;-60
2021/06/13 13:39:39;;;;;;;7.50;2.13;;;;;;;;;;4895662;29;20048;-59
2021/06/13 13:42:13;;;;;;;9.65;1.90;;;;;;;;;;4894451;29;20040;-60
2021/06/13 13:44:42;;;;;;;6.28;1.98;;;;;;;;;;4894123;29;20044;-60
2021/06/13 13:47:09;;;;;;;11.13;2.17;;;;;;;;;;4894216;29;20062;-59
2021/06/13 13:49:35;;;;;;;6.55;1.80;;;;;;;;;;4893699;29;20043;-58
2021/06/13 13:52:01;;;;;;;6.53;2.25;;;;;;;;;;4895750;29;20059;-63
2021/06/13 13:54:29;;;;;;;6.68;2.63;;;;;;;;;;4894880;29;20105;-62
2021/06/13 13:56:57;;;;;;;6.53;1.73;;;;;;;;;;4895199;29;20047;-64
2021/06/13 13:59:23;;;;;;;6.07;1.88;;;;;;;;;;4894503;29;20044;-62
2021/06/13 14:01:49;;;;;;;6.88;2.00;;;;;;;;;;4896651;29;20051;-61
2021/06/13 14:04:15;;;;;;;10.23;2.13;;;;;;;;;;4899872;29;20238;-63
2021/06/13 14:06:41;;;;;;;9.55;1.98;;;;;;;;;;4895179;29;20592;-63
2021/06/13 14:09:07;;;;;;;7.70;1.70;;;;;;;;;;4895238;29;20044;-60
2021/06/13 14:11:33;;;;;;;9.75;2.17;;;;;;;;;;4894342;29;20959;-61
2021/06/13 14:13:59;;;;;;;7.15;1.92;;;;;;;;;;4897328;29;20048;-62
2021/06/13 14:16:26;;;;;;;8.73;1.70;;;;;;;;;;4896423;29;20662;-62
2021/06/13 14:18:52;;;;;;;5.25;1.70;;;;;;;;;;4897030;29;20040;-62
2021/06/13 14:21:19;;;;;;;6.03;1.50;;;;;;;;;;4878675;29;20043;-62
2021/06/13 14:23:45;;;;;;;4.28;1.40;;;;;;;;;;4885970;29;20252;-63
2021/06/13 14:26:11;;;;;;;5.72;1.60;;;;;;;;;;4880979;29;20044;-63
2021/06/13 14:28:37;;;;;;;5.97;1.58;;;;;;;;;;4896413;29;20090;-63
2021/06/13 14:31:02;;;;;;;5.22;1.48;;;;;;;;;;4895982;29;20159;-65
2021/06/13 14:33:28;;;;;;;5.00;1.40;;;;;;;;;;4899012;29;20078;-62
2021/06/13 14:35:54;;;;;;;3.75;1.05;;;;;;;;;;4897729;29;20044;-64
2021/06/13 14:38:20;;;;;;;4.13;1.10;;;;;;;;;;4898654;29;20103;-63
2021/06/13 14:40:47;;;;;;;2.80;1.10;;;;;;;;;;4897859;29;21123;-61
2021/06/13 14:43:15;;;;;;;4.10;1.05;;;;;;;;;;4898926;29;20055;-61
2021/06/13 14:45:41;;;;;;;3.63;0.82;;;;;;;;;;4898695;29;20497;-61
2021/06/13 14:48:07;;;;;;;3.63;1.10;;;;;;;;;;4897617;29;20054;-60